sensor_id;sensor_type;location;lat;lon;timestamp;temperature;humidity
28023;DHT22;67403;50.104;8.758;2023-02-11T00:00:38;0.90;99.90
28023;DHT22;67403;50.104;8.758;2023-02-11T00:03:04;1.00;99.90
28023;DHT22;67403;50.104;8.758;2023-02-11T00:05:31;1.00;99.90
28023;DHT22;67403;50.104;8.758;2023-02-11T00:07:58;1.10;99.90
28023;DHT22;67403;50.104;8.758;2023-02-11T00:10:26;1.20;99.90
28023;DHT22;67403;50.104;8.758;2023-02-11T00:12:53;1.30;99.90
28023;DHT22;67403;50.104;8.758;2023-02-11T00:15:20;1.30;99.90
28023;DHT22;67403;50.104;8.758;2023-02-11T00:17:47;1.40;99.90
28023;DHT22;67403;50.104;8.758;2023-02-11T00:20:14;1.40;99.90
28023;DHT22;67403;50.104;8.758;2023-02-11T00:22:41;1.50;99.90
28023;DHT22;67403;50.104;8.758;2023-02-11T00:25:08;1.50;99.90
28023;DHT22;67403;50.104;8.758;2023-02-11T00:27:37;1.50;99.90
28023;DHT22;67403;50.104;8.758;2023-02-11T00:30:04;1.40;99.90
28023;DHT22;67403;50.104;8.758;2023-02-11T00:32:31;1.50;99.90
28023;DHT22;67403;50.104;8.758;2023-02-11T00:34:58;1.50;99.90
28023;DHT22;67403;50.104;8.758;2023-02-11T00:37:26;1.50;99.90
28023;DHT22;67403;50.104;8.758;2023-02-11T00:39:52;1.60;99.90
28023;DHT22;67403;50.104;8.758;2023-02-11T00:42:19;1.70;99.90
28023;DHT22;67403;50.104;8.758;2023-02-11T00:44:47;1.60;99.90
28023;DHT22;67403;50.104;8.758;2023-02-11T00:47:15;1.60;99.90
28023;DHT22;67403;50.104;8.758;2023-02-11T00:49:41;1.70;99.90
28023;DHT22;67403;50.104;8.758;2023-02-11T00:52:08;1.70;99.90
28023;DHT22;67403;50.104;8.758;2023-02-11T00:54:35;1.80;99.90
28023;DHT22;67403;50.104;8.758;2023-02-11T00:57:02;1.80;99.90
28023;DHT22;67403;50.104;8.758;2023-02-11T00:59:29;1.90;99.90
28023;DHT22;67403;50.104;8.758;2023-02-11T01:01:57;2.00;99.90
28023;DHT22;67403;50.104;8.758;2023-02-11T01:04:24;2.10;99.90
28023;DHT22;67403;50.104;8.758;2023-02-11T01:06:51;2.00;99.90
28023;DHT22;67403;50.104;8.758;2023-02-11T01:09:18;2.10;99.90
28023;DHT22;67403;50.104;8.758;2023-02-11T01:11:46;2.00;99.90
28023;DHT22;67403;50.104;8.758;2023-02-11T01:14:13;2.00;99.90
28023;DHT22;67403;50.104;8.758;2023-02-11T01:16:40;2.10;99.90
28023;DHT22;67403;50.104;8.758;2023-02-11T01:19:08;2.10;99.90
28023;DHT22;67403;50.104;8.758;2023-02-11T01:21:35;2.10;99.90
28023;DHT22;67403;50.104;8.758;2023-02-11T01:24:02;2.20;99.90
28023;DHT22;67403;50.104;8.758;2023-02-11T01:26:29;2.20;99.90
28023;DHT22;67403;50.104;8.758;2023-02-11T01:28:56;2.20;99.90
28023;DHT22;67403;50.104;8.758;2023-02-11T01:31:24;2.20;99.90
28023;DHT22;67403;50.104;8.758;2023-02-11T01:33:51;2.20;99.90
28023;DHT22;67403;50.104;8.758;2023-02-11T01:36:20;2.30;99.90
28023;DHT22;67403;50.104;8.758;2023-02-11T01:38:46;2.40;99.90
28023;DHT22;67403;50.104;8.758;2023-02-11T01:41:15;2.30;99.90
28023;DHT22;67403;50.104;8.758;2023-02-11T01:43:45;2.30;99.90
28023;DHT22;67403;50.104;8.758;2023-02-11T01:46:19;2.30;99.90
28023;DHT22;67403;50.104;8.758;2023-02-11T01:48:53;2.30;99.90
28023;DHT22;67403;50.104;8.758;2023-02-11T01:51:25;2.40;99.90
28023;DHT22;67403;50.104;8.758;2023-02-11T01:53:53;2.40;99.90
28023;DHT22;67403;50.104;8.758;2023-02-11T01:56:43;2.40;99.90
28023;DHT22;67403;50.104;8.758;2023-02-11T01:59:32;2.40;99.90
28023;DHT22;67403;50.104;8.758;2023-02-11T02:02:05;2.40;99.90
28023;DHT22;67403;50.104;8.758;2023-02-11T02:04:38;2.30;99.90
28023;DHT22;67403;50.104;8.758;2023-02-11T02:07:11;2.40;99.90
28023;DHT22;67403;50.104;8.758;2023-02-11T02:09:43;2.30;99.90
28023;DHT22;67403;50.104;8.758;2023-02-11T02:12:12;2.30;99.90
28023;DHT22;67403;50.104;8.758;2023-02-11T02:14:39;2.30;99.90
28023;DHT22;67403;50.104;8.758;2023-02-11T02:17:07;2.20;99.90
28023;DHT22;67403;50.104;8.758;2023-02-11T02:20:10;2.10;99.90
28023;DHT22;67403;50.104;8.758;2023-02-11T02:23:14;2.10;99.90
28023;DHT22;67403;50.104;8.758;2023-02-11T02:29:04;2.10;99.90
28023;DHT22;67403;50.104;8.758;2023-02-11T02:31:48;2.10;99.90
28023;DHT22;67403;50.104;8.758;2023-02-11T02:34:25;2.10;99.90
28023;DHT22;67403;50.104;8.758;2023-02-11T02:36:59;2.10;99.90
28023;DHT22;67403;50.104;8.758;2023-02-11T02:39:30;2.10;99.90
28023;DHT22;67403;50.104;8.758;2023-02-11T02:41:58;2.10;99.90
28023;DHT22;67403;50.104;8.758;2023-02-11T02:44:25;2.10;99.90
28023;DHT22;67403;50.104;8.758;2023-02-11T02:46:52;2.10;99.90
28023;DHT22;67403;50.104;8.758;2023-02-11T02:49:20;2.10;99.90
28023;DHT22;67403;50.104;8.758;2023-02-11T02:52:06;2.10;99.90
28023;DHT22;67403;50.104;8.758;2023-02-11T02:54:54;2.10;99.90
28023;DHT22;67403;50.104;8.758;2023-02-11T02:57:30;2.10;99.90
28023;DHT22;67403;50.104;8.758;2023-02-11T03:00:07;2.10;99.90
28023;DHT22;67403;50.104;8.758;2023-02-11T03:02:43;2.10;99.90
28023;DHT22;67403;50.104;8.758;2023-02-11T03:05:22;2.10;99.90
28023;DHT22;67403;50.104;8.758;2023-02-11T03:07:56;2.00;99.90
28023;DHT22;67403;50.104;8.758;2023-02-11T03:10:27;2.10;99.90
28023;DHT22;67403;50.104;8.758;2023-02-11T03:12:56;2.10;99.90
28023;DHT22;67403;50.104;8.758;2023-02-11T03:15:26;2.10;99.90
28023;DHT22;67403;50.104;8.758;2023-02-11T03:17:57;2.10;99.90
28023;DHT22;67403;50.104;8.758;2023-02-11T03:20:25;2.10;99.90
28023;DHT22;67403;50.104;8.758;2023-02-11T03:22:57;2.10;99.90
28023;DHT22;67403;50.104;8.758;2023-02-11T03:25:28;2.10;99.90
28023;DHT22;67403;50.104;8.758;2023-02-11T03:28:00;2.10;99.90
28023;DHT22;67403;50.104;8.758;2023-02-11T03:30:31;2.10;99.90
28023;DHT22;67403;50.104;8.758;2023-02-11T03:33:04;2.10;99.90
28023;DHT22;67403;50.104;8.758;2023-02-11T03:35:38;2.10;99.90
28023;DHT22;67403;50.104;8.758;2023-02-11T03:38:10;2.10;99.90
28023;DHT22;67403;50.104;8.758;2023-02-11T03:40:40;2.10;99.90
28023;DHT22;67403;50.104;8.758;2023-02-11T03:43:11;2.10;99.90
28023;DHT22;67403;50.104;8.758;2023-02-11T03:45:43;2.10;99.90
28023;DHT22;67403;50.104;8.758;2023-02-11T03:48:14;2.10;99.90
28023;DHT22;67403;50.104;8.758;2023-02-11T03:50:45;2.10;99.90
28023;DHT22;67403;50.104;8.758;2023-02-11T03:53:13;2.10;99.90
28023;DHT22;67403;50.104;8.758;2023-02-11T03:55:42;2.10;99.90
28023;DHT22;67403;50.104;8.758;2023-02-11T03:58:10;2.10;99.90
28023;DHT22;67403;50.104;8.758;2023-02-11T04:00:38;2.10;99.90
28023;DHT22;67403;50.104;8.758;2023-02-11T04:03:07;2.00;99.90
28023;DHT22;67403;50.104;8.758;2023-02-11T04:05:34;1.90;99.90
28023;DHT22;67403;50.104;8.758;2023-02-11T04:08:03;2.00;99.90
28023;DHT22;67403;50.104;8.758;2023-02-11T04:10:30;2.00;99.90
28023;DHT22;67403;50.104;8.758;2023-02-11T04:13:17;2.00;99.90
28023;DHT22;67403;50.104;8.758;2023-02-11T04:16:04;2.10;99.90
28023;DHT22;67403;50.104;8.758;2023-02-11T04:18:50;2.10;99.90
28023;DHT22;67403;50.104;8.758;2023-02-11T04:21:37;2.10;99.90
28023;DHT22;67403;50.104;8.758;2023-02-11T04:24:25;2.10;99.90
28023;DHT22;67403;50.104;8.758;2023-02-11T04:27:12;2.10;99.90
28023;DHT22;67403;50.104;8.758;2023-02-11T04:29:52;2.20;99.90
28023;DHT22;67403;50.104;8.758;2023-02-11T04:32:19;2.20;99.90
28023;DHT22;67403;50.104;8.758;2023-02-11T04:34:46;2.20;99.90
28023;DHT22;67403;50.104;8.758;2023-02-11T04:37:14;2.30;99.90
28023;DHT22;67403;50.104;8.758;2023-02-11T04:39:42;2.20;99.90
28023;DHT22;67403;50.104;8.758;2023-02-11T04:42:09;2.20;99.90
28023;DHT22;67403;50.104;8.758;2023-02-11T04:44:36;2.30;99.90
28023;DHT22;67403;50.104;8.758;2023-02-11T04:47:03;2.30;99.90
28023;DHT22;67403;50.104;8.758;2023-02-11T04:49:30;2.20;99.90
28023;DHT22;67403;50.104;8.758;2023-02-11T04:51:57;2.20;99.90
28023;DHT22;67403;50.104;8.758;2023-02-11T04:54:23;2.20;99.90
28023;DHT22;67403;50.104;8.758;2023-02-11T04:56:52;2.20;99.90
28023;DHT22;67403;50.104;8.758;2023-02-11T04:59:18;2.30;99.90
28023;DHT22;67403;50.104;8.758;2023-02-11T05:01:45;2.30;99.90
28023;DHT22;67403;50.104;8.758;2023-02-11T05:04:12;2.40;99.90
28023;DHT22;67403;50.104;8.758;2023-02-11T05:06:39;2.40;99.90
28023;DHT22;67403;50.104;8.758;2023-02-11T05:09:06;2.30;99.90
28023;DHT22;67403;50.104;8.758;2023-02-11T05:11:33;2.30;99.90
28023;DHT22;67403;50.104;8.758;2023-02-11T05:14:02;2.40;99.90
28023;DHT22;67403;50.104;8.758;2023-02-11T05:16:29;2.40;99.90
28023;DHT22;67403;50.104;8.758;2023-02-11T05:18:56;2.40;99.90
28023;DHT22;67403;50.104;8.758;2023-02-11T05:21:23;2.40;99.90
28023;DHT22;67403;50.104;8.758;2023-02-11T05:23:50;2.40;99.90
28023;DHT22;67403;50.104;8.758;2023-02-11T05:26:17;2.40;99.90
28023;DHT22;67403;50.104;8.758;2023-02-11T05:28:44;2.40;99.90
28023;DHT22;67403;50.104;8.758;2023-02-11T05:31:13;2.30;99.90
28023;DHT22;67403;50.104;8.758;2023-02-11T05:33:41;2.30;99.90
28023;DHT22;67403;50.104;8.758;2023-02-11T05:36:11;2.20;99.90
28023;DHT22;67403;50.104;8.758;2023-02-11T05:38:38;2.20;99.90
28023;DHT22;67403;50.104;8.758;2023-02-11T05:41:07;2.20;99.90
28023;DHT22;67403;50.104;8.758;2023-02-11T05:43:33;2.30;99.90
28023;DHT22;67403;50.104;8.758;2023-02-11T05:46:01;2.30;99.90
28023;DHT22;67403;50.104;8.758;2023-02-11T05:48:30;2.30;99.90
28023;DHT22;67403;50.104;8.758;2023-02-11T05:50:57;2.30;99.90
28023;DHT22;67403;50.104;8.758;2023-02-11T05:53:24;2.40;99.90
28023;DHT22;67403;50.104;8.758;2023-02-11T05:55:51;2.30;99.90
28023;DHT22;67403;50.104;8.758;2023-02-11T05:58:18;2.30;99.90
28023;DHT22;67403;50.104;8.758;2023-02-11T06:00:45;2.30;99.90
28023;DHT22;67403;50.104;8.758;2023-02-11T06:03:12;2.30;99.90
28023;DHT22;67403;50.104;8.758;2023-02-11T06:05:41;2.30;99.90
28023;DHT22;67403;50.104;8.758;2023-02-11T06:08:08;2.30;99.90
28023;DHT22;67403;50.104;8.758;2023-02-11T06:10:35;2.30;99.90
28023;DHT22;67403;50.104;8.758;2023-02-11T06:13:02;2.30;99.90
28023;DHT22;67403;50.104;8.758;2023-02-11T06:15:28;2.20;99.90
28023;DHT22;67403;50.104;8.758;2023-02-11T06:17:56;2.30;99.90
28023;DHT22;67403;50.104;8.758;2023-02-11T06:20:22;2.40;99.90
28023;DHT22;67403;50.104;8.758;2023-02-11T06:22:51;2.40;99.90
28023;DHT22;67403;50.104;8.758;2023-02-11T06:25:18;2.30;99.90
28023;DHT22;67403;50.104;8.758;2023-02-11T06:27:44;2.40;99.90
28023;DHT22;67403;50.104;8.758;2023-02-11T06:30:12;2.40;99.90
28023;DHT22;67403;50.104;8.758;2023-02-11T06:32:39;2.30;99.90
28023;DHT22;67403;50.104;8.758;2023-02-11T06:35:07;2.30;99.90
28023;DHT22;67403;50.104;8.758;2023-02-11T06:37:34;2.20;99.90
28023;DHT22;67403;50.104;8.758;2023-02-11T06:40:02;2.20;99.90
28023;DHT22;67403;50.104;8.758;2023-02-11T06:42:29;2.10;99.90
28023;DHT22;67403;50.104;8.758;2023-02-11T06:44:56;2.00;99.90
28023;DHT22;67403;50.104;8.758;2023-02-11T06:47:23;2.00;99.90
28023;DHT22;67403;50.104;8.758;2023-02-11T06:49:50;2.00;99.90
28023;DHT22;67403;50.104;8.758;2023-02-11T06:52:17;1.90;99.90
28023;DHT22;67403;50.104;8.758;2023-02-11T06:54:44;1.90;99.90
28023;DHT22;67403;50.104;8.758;2023-02-11T06:57:12;2.00;99.90
28023;DHT22;67403;50.104;8.758;2023-02-11T06:59:40;1.90;99.90
28023;DHT22;67403;50.104;8.758;2023-02-11T07:02:08;1.90;99.90
28023;DHT22;67403;50.104;8.758;2023-02-11T07:04:35;1.90;99.90
28023;DHT22;67403;50.104;8.758;2023-02-11T07:07:02;2.00;99.90
28023;DHT22;67403;50.104;8.758;2023-02-11T07:09:29;2.00;99.90
28023;DHT22;67403;50.104;8.758;2023-02-11T07:11:56;2.10;99.90
28023;DHT22;67403;50.104;8.758;2023-02-11T07:14:24;2.20;99.90
28023;DHT22;67403;50.104;8.758;2023-02-11T07:16:51;2.20;99.90
28023;DHT22;67403;50.104;8.758;2023-02-11T07:19:18;2.30;99.90
28023;DHT22;67403;50.104;8.758;2023-02-11T07:21:45;2.30;99.90
28023;DHT22;67403;50.104;8.758;2023-02-11T07:24:13;2.40;99.90
28023;DHT22;67403;50.104;8.758;2023-02-11T07:26:40;2.40;99.90
28023;DHT22;67403;50.104;8.758;2023-02-11T07:29:07;2.50;99.90
28023;DHT22;67403;50.104;8.758;2023-02-11T07:31:35;2.60;99.90
28023;DHT22;67403;50.104;8.758;2023-02-11T07:34:02;2.60;99.90
28023;DHT22;67403;50.104;8.758;2023-02-11T07:36:30;2.70;99.90
28023;DHT22;67403;50.104;8.758;2023-02-11T07:38:57;2.60;99.90
28023;DHT22;67403;50.104;8.758;2023-02-11T07:41:25;2.60;99.90
28023;DHT22;67403;50.104;8.758;2023-02-11T07:43:52;2.70;99.90
28023;DHT22;67403;50.104;8.758;2023-02-11T07:46:21;2.80;99.90
28023;DHT22;67403;50.104;8.758;2023-02-11T07:48:50;2.90;99.90
28023;DHT22;67403;50.104;8.758;2023-02-11T07:51:19;3.00;99.90
28023;DHT22;67403;50.104;8.758;2023-02-11T07:53:46;3.10;99.90
28023;DHT22;67403;50.104;8.758;2023-02-11T07:56:14;3.20;99.90
28023;DHT22;67403;50.104;8.758;2023-02-11T07:58:41;3.20;99.90
28023;DHT22;67403;50.104;8.758;2023-02-11T08:01:10;3.40;99.90
28023;DHT22;67403;50.104;8.758;2023-02-11T08:03:37;3.50;99.90
28023;DHT22;67403;50.104;8.758;2023-02-11T08:06:09;3.70;99.90
28023;DHT22;67403;50.104;8.758;2023-02-11T08:08:36;3.80;99.90
28023;DHT22;67403;50.104;8.758;2023-02-11T08:11:07;3.90;99.90
28023;DHT22;67403;50.104;8.758;2023-02-11T08:13:34;4.00;99.90
28023;DHT22;67403;50.104;8.758;2023-02-11T08:16:01;4.00;99.90
28023;DHT22;67403;50.104;8.758;2023-02-11T08:18:28;4.00;99.90
28023;DHT22;67403;50.104;8.758;2023-02-11T08:20:55;4.10;99.90
28023;DHT22;67403;50.104;8.758;2023-02-11T08:23:23;4.00;99.90
28023;DHT22;67403;50.104;8.758;2023-02-11T08:25:50;4.00;99.90
28023;DHT22;67403;50.104;8.758;2023-02-11T08:28:17;3.90;99.90
28023;DHT22;67403;50.104;8.758;2023-02-11T08:30:44;4.10;99.90
28023;DHT22;67403;50.104;8.758;2023-02-11T08:33:11;4.10;99.90
28023;DHT22;67403;50.104;8.758;2023-02-11T08:35:38;4.20;99.90
28023;DHT22;67403;50.104;8.758;2023-02-11T08:38:06;4.30;99.90
28023;DHT22;67403;50.104;8.758;2023-02-11T08:40:34;4.40;99.90
28023;DHT22;67403;50.104;8.758;2023-02-11T08:43:01;4.50;99.90
28023;DHT22;67403;50.104;8.758;2023-02-11T08:45:28;4.50;99.90
28023;DHT22;67403;50.104;8.758;2023-02-11T08:47:55;4.70;99.90
28023;DHT22;67403;50.104;8.758;2023-02-11T08:50:22;4.60;99.90
28023;DHT22;67403;50.104;8.758;2023-02-11T08:52:49;4.70;99.90
28023;DHT22;67403;50.104;8.758;2023-02-11T08:55:17;4.70;99.90
28023;DHT22;67403;50.104;8.758;2023-02-11T08:57:45;4.70;99.90
28023;DHT22;67403;50.104;8.758;2023-02-11T09:00:13;4.50;99.90
28023;DHT22;67403;50.104;8.758;2023-02-11T09:02:41;4.50;99.90
28023;DHT22;67403;50.104;8.758;2023-02-11T09:05:08;4.70;99.90
28023;DHT22;67403;50.104;8.758;2023-02-11T09:07:34;4.80;99.90
28023;DHT22;67403;50.104;8.758;2023-02-11T09:10:01;4.90;99.90
28023;DHT22;67403;50.104;8.758;2023-02-11T09:12:28;4.80;99.90
28023;DHT22;67403;50.104;8.758;2023-02-11T09:14:57;5.00;99.90
28023;DHT22;67403;50.104;8.758;2023-02-11T09:17:24;5.00;99.90
28023;DHT22;67403;50.104;8.758;2023-02-11T09:19:50;5.00;99.90
28023;DHT22;67403;50.104;8.758;2023-02-11T09:22:17;5.10;99.90
28023;DHT22;67403;50.104;8.758;2023-02-11T09:24:44;5.10;99.90
28023;DHT22;67403;50.104;8.758;2023-02-11T09:27:11;5.30;99.90
28023;DHT22;67403;50.104;8.758;2023-02-11T09:29:38;5.40;99.90
28023;DHT22;67403;50.104;8.758;2023-02-11T09:32:06;5.40;99.90
28023;DHT22;67403;50.104;8.758;2023-02-11T09:34:33;5.40;99.90
28023;DHT22;67403;50.104;8.758;2023-02-11T09:37:00;5.40;99.90
28023;DHT22;67403;50.104;8.758;2023-02-11T09:39:27;5.50;99.90
28023;DHT22;67403;50.104;8.758;2023-02-11T09:42:15;5.50;99.90
28023;DHT22;67403;50.104;8.758;2023-02-11T09:44:46;5.70;99.90
28023;DHT22;67403;50.104;8.758;2023-02-11T09:47:24;5.70;99.90
28023;DHT22;67403;50.104;8.758;2023-02-11T09:49:56;5.80;99.90
28023;DHT22;67403;50.104;8.758;2023-02-11T09:52:31;5.90;99.90
28023;DHT22;67403;50.104;8.758;2023-02-11T09:55:00;6.10;99.90
28023;DHT22;67403;50.104;8.758;2023-02-11T09:57:31;6.20;99.90
28023;DHT22;67403;50.104;8.758;2023-02-11T09:59:59;6.50;99.90
28023;DHT22;67403;50.104;8.758;2023-02-11T10:02:31;6.20;99.90
28023;DHT22;67403;50.104;8.758;2023-02-11T10:05:21;6.20;99.90
28023;DHT22;67403;50.104;8.758;2023-02-11T10:07:57;6.30;99.90
28023;DHT22;67403;50.104;8.758;2023-02-11T10:10:44;6.40;99.90
28023;DHT22;67403;50.104;8.758;2023-02-11T10:13:31;6.50;99.90
28023;DHT22;67403;50.104;8.758;2023-02-11T10:16:08;6.90;99.90
28023;DHT22;67403;50.104;8.758;2023-02-11T10:18:49;6.60;99.90
28023;DHT22;67403;50.104;8.758;2023-02-11T10:21:28;6.60;99.90
28023;DHT22;67403;50.104;8.758;2023-02-11T10:24:00;7.00;99.90
28023;DHT22;67403;50.104;8.758;2023-02-11T10:26:30;7.00;99.90
28023;DHT22;67403;50.104;8.758;2023-02-11T10:29:00;6.90;99.90
28023;DHT22;67403;50.104;8.758;2023-02-11T10:31:36;7.00;99.90
28023;DHT22;67403;50.104;8.758;2023-02-11T10:34:08;7.00;99.90
28023;DHT22;67403;50.104;8.758;2023-02-11T10:36:37;7.10;99.90
28023;DHT22;67403;50.104;8.758;2023-02-11T10:39:11;7.10;99.90
28023;DHT22;67403;50.104;8.758;2023-02-11T10:41:42;7.00;99.90
28023;DHT22;67403;50.104;8.758;2023-02-11T10:44:18;6.80;99.90
28023;DHT22;67403;50.104;8.758;2023-02-11T10:46:48;6.80;99.90
28023;DHT22;67403;50.104;8.758;2023-02-11T10:49:33;6.70;99.90
28023;DHT22;67403;50.104;8.758;2023-02-11T10:52:28;6.60;99.90
28023;DHT22;67403;50.104;8.758;2023-02-11T10:54:58;6.50;99.90
28023;DHT22;67403;50.104;8.758;2023-02-11T10:57:29;6.50;99.90
28023;DHT22;67403;50.104;8.758;2023-02-11T10:59:59;6.50;99.90
28023;DHT22;67403;50.104;8.758;2023-02-11T11:02:29;6.50;99.90
28023;DHT22;67403;50.104;8.758;2023-02-11T11:05:03;6.50;99.90
28023;DHT22;67403;50.104;8.758;2023-02-11T11:07:32;6.60;99.90
28023;DHT22;67403;50.104;8.758;2023-02-11T11:10:02;6.50;99.90
28023;DHT22;67403;50.104;8.758;2023-02-11T11:12:36;6.50;99.90
28023;DHT22;67403;50.104;8.758;2023-02-11T11:15:18;6.50;99.90
28023;DHT22;67403;50.104;8.758;2023-02-11T11:17:47;6.50;99.90
28023;DHT22;67403;50.104;8.758;2023-02-11T11:20:26;6.60;99.90
28023;DHT22;67403;50.104;8.758;2023-02-11T11:23:08;6.70;99.90
28023;DHT22;67403;50.104;8.758;2023-02-11T11:25:38;6.70;99.90
28023;DHT22;67403;50.104;8.758;2023-02-11T11:28:19;6.60;99.90
28023;DHT22;67403;50.104;8.758;2023-02-11T11:30:47;6.70;99.90
28023;DHT22;67403;50.104;8.758;2023-02-11T11:33:18;6.80;99.90
28023;DHT22;67403;50.104;8.758;2023-02-11T11:35:57;7.10;99.90
28023;DHT22;67403;50.104;8.758;2023-02-11T11:38:26;7.30;99.90
28023;DHT22;67403;50.104;8.758;2023-02-11T11:41:19;7.70;99.90
28023;DHT22;67403;50.104;8.758;2023-02-11T11:43:59;7.60;99.90
28023;DHT22;67403;50.104;8.758;2023-02-11T11:46:29;7.60;99.90
28023;DHT22;67403;50.104;8.758;2023-02-11T11:49:16;7.70;99.90
28023;DHT22;67403;50.104;8.758;2023-02-11T11:51:53;7.80;99.90
28023;DHT22;67403;50.104;8.758;2023-02-11T11:54:23;7.70;99.90
28023;DHT22;67403;50.104;8.758;2023-02-11T11:56:55;7.70;99.90
28023;DHT22;67403;50.104;8.758;2023-02-11T11:59:23;7.50;99.90
28023;DHT22;67403;50.104;8.758;2023-02-11T12:02:04;7.20;99.90
28023;DHT22;67403;50.104;8.758;2023-02-11T12:04:51;7.10;99.90
28023;DHT22;67403;50.104;8.758;2023-02-11T12:07:37;7.20;99.90
28023;DHT22;67403;50.104;8.758;2023-02-11T12:10:23;7.10;99.90
28023;DHT22;67403;50.104;8.758;2023-02-11T12:12:58;7.30;99.90
28023;DHT22;67403;50.104;8.758;2023-02-11T12:15:31;7.50;99.90
28023;DHT22;67403;50.104;8.758;2023-02-11T12:18:10;7.70;99.90
28023;DHT22;67403;50.104;8.758;2023-02-11T12:20:53;7.90;99.90
28023;DHT22;67403;50.104;8.758;2023-02-11T12:23:36;8.00;99.90
28023;DHT22;67403;50.104;8.758;2023-02-11T12:26:06;7.90;99.90
28023;DHT22;67403;50.104;8.758;2023-02-11T12:28:39;7.90;99.90
28023;DHT22;67403;50.104;8.758;2023-02-11T12:31:21;7.80;99.90
28023;DHT22;67403;50.104;8.758;2023-02-11T12:34:04;8.00;99.90
28023;DHT22;67403;50.104;8.758;2023-02-11T12:36:49;8.00;99.90
28023;DHT22;67403;50.104;8.758;2023-02-11T12:39:31;7.90;99.90
28023;DHT22;67403;50.104;8.758;2023-02-11T12:42:12;7.80;99.90
28023;DHT22;67403;50.104;8.758;2023-02-11T12:45:08;7.60;99.90
28023;DHT22;67403;50.104;8.758;2023-02-11T12:47:46;7.70;99.90
28023;DHT22;67403;50.104;8.758;2023-02-11T12:50:23;7.80;99.90
28023;DHT22;67403;50.104;8.758;2023-02-11T12:53:15;7.70;99.90
28023;DHT22;67403;50.104;8.758;2023-02-11T12:55:50;7.80;99.90
28023;DHT22;67403;50.104;8.758;2023-02-11T12:58:22;7.80;99.90
28023;DHT22;67403;50.104;8.758;2023-02-11T13:00:54;7.70;99.90
28023;DHT22;67403;50.104;8.758;2023-02-11T13:03:24;7.70;99.90
28023;DHT22;67403;50.104;8.758;2023-02-11T13:05:56;7.60;99.90
28023;DHT22;67403;50.104;8.758;2023-02-11T13:08:27;7.50;99.90
28023;DHT22;67403;50.104;8.758;2023-02-11T13:10:59;7.60;99.90
28023;DHT22;67403;50.104;8.758;2023-02-11T13:13:31;7.60;99.90
28023;DHT22;67403;50.104;8.758;2023-02-11T13:16:04;7.60;99.90
28023;DHT22;67403;50.104;8.758;2023-02-11T13:18:38;7.60;99.90
28023;DHT22;67403;50.104;8.758;2023-02-11T13:21:21;7.50;99.90
28023;DHT22;67403;50.104;8.758;2023-02-11T13:23:56;7.50;99.90
28023;DHT22;67403;50.104;8.758;2023-02-11T13:26:32;7.50;99.90
28023;DHT22;67403;50.104;8.758;2023-02-11T13:29:09;7.50;99.90
28023;DHT22;67403;50.104;8.758;2023-02-11T13:31:38;7.60;99.90
28023;DHT22;67403;50.104;8.758;2023-02-11T13:34:22;7.50;99.90
28023;DHT22;67403;50.104;8.758;2023-02-11T13:36:54;7.50;99.90
28023;DHT22;67403;50.104;8.758;2023-02-11T13:39:21;7.60;99.90
28023;DHT22;67403;50.104;8.758;2023-02-11T13:41:50;7.60;99.90
28023;DHT22;67403;50.104;8.758;2023-02-11T13:44:33;7.60;99.90
28023;DHT22;67403;50.104;8.758;2023-02-11T13:47:05;7.50;99.90
28023;DHT22;67403;50.104;8.758;2023-02-11T13:49:48;7.50;99.90
28023;DHT22;67403;50.104;8.758;2023-02-11T13:52:22;7.50;99.90
28023;DHT22;67403;50.104;8.758;2023-02-11T13:54:52;7.50;99.90
28023;DHT22;67403;50.104;8.758;2023-02-11T14:00:43;7.50;99.90
28023;DHT22;67403;50.104;8.758;2023-02-11T14:03:23;7.50;99.90
28023;DHT22;67403;50.104;8.758;2023-02-11T14:06:20;7.50;99.90
28023;DHT22;67403;50.104;8.758;2023-02-11T14:09:34;7.50;99.90
28023;DHT22;67403;50.104;8.758;2023-02-11T14:12:21;7.40;99.90
28023;DHT22;67403;50.104;8.758;2023-02-11T14:15:01;7.40;99.90
28023;DHT22;67403;50.104;8.758;2023-02-11T14:17:42;7.40;99.90
28023;DHT22;67403;50.104;8.758;2023-02-11T14:20:31;7.50;99.90
28023;DHT22;67403;50.104;8.758;2023-02-11T14:22:59;7.50;99.90
28023;DHT22;67403;50.104;8.758;2023-02-11T14:25:26;7.60;99.90
28023;DHT22;67403;50.104;8.758;2023-02-11T14:27:55;7.60;99.90
28023;DHT22;67403;50.104;8.758;2023-02-11T14:30:45;7.70;99.90
28023;DHT22;67403;50.104;8.758;2023-02-11T14:36:11;7.70;99.90
28023;DHT22;67403;50.104;8.758;2023-02-11T14:38:51;7.70;99.90
28023;DHT22;67403;50.104;8.758;2023-02-11T14:41:23;7.70;99.90
28023;DHT22;67403;50.104;8.758;2023-02-11T14:43:52;7.70;99.90
28023;DHT22;67403;50.104;8.758;2023-02-11T14:46:23;7.80;99.90
28023;DHT22;67403;50.104;8.758;2023-02-11T14:48:53;7.90;99.90
28023;DHT22;67403;50.104;8.758;2023-02-11T14:51:25;7.70;99.90
28023;DHT22;67403;50.104;8.758;2023-02-11T14:53:54;7.70;99.90
28023;DHT22;67403;50.104;8.758;2023-02-11T14:56:26;7.80;99.90
28023;DHT22;67403;50.104;8.758;2023-02-11T14:58:56;7.80;99.90
28023;DHT22;67403;50.104;8.758;2023-02-11T15:01:28;7.70;99.90
28023;DHT22;67403;50.104;8.758;2023-02-11T15:03:56;7.80;99.90
28023;DHT22;67403;50.104;8.758;2023-02-11T15:06:27;7.70;99.90
28023;DHT22;67403;50.104;8.758;2023-02-11T15:08:57;7.70;99.90
28023;DHT22;67403;50.104;8.758;2023-02-11T15:11:27;7.70;99.90
28023;DHT22;67403;50.104;8.758;2023-02-11T15:13:55;7.60;99.90
28023;DHT22;67403;50.104;8.758;2023-02-11T15:16:26;7.70;99.90
28023;DHT22;67403;50.104;8.758;2023-02-11T15:18:56;7.70;99.90
28023;DHT22;67403;50.104;8.758;2023-02-11T15:21:27;7.70;99.90
28023;DHT22;67403;50.104;8.758;2023-02-11T15:23:56;7.60;99.90
28023;DHT22;67403;50.104;8.758;2023-02-11T15:26:24;7.60;99.90
28023;DHT22;67403;50.104;8.758;2023-02-11T15:28:51;7.60;99.90
28023;DHT22;67403;50.104;8.758;2023-02-11T15:31:21;7.60;99.90
28023;DHT22;67403;50.104;8.758;2023-02-11T15:33:50;7.50;99.90
28023;DHT22;67403;50.104;8.758;2023-02-11T15:36:19;7.50;99.90
28023;DHT22;67403;50.104;8.758;2023-02-11T15:39:16;7.50;99.90
28023;DHT22;67403;50.104;8.758;2023-02-11T15:41:43;7.50;99.90
28023;DHT22;67403;50.104;8.758;2023-02-11T15:44:25;7.50;99.90
28023;DHT22;67403;50.104;8.758;2023-02-11T15:46:53;7.50;99.90
28023;DHT22;67403;50.104;8.758;2023-02-11T15:49:22;7.40;99.90
28023;DHT22;67403;50.104;8.758;2023-02-11T15:51:51;7.40;99.90
28023;DHT22;67403;50.104;8.758;2023-02-11T15:54:22;7.40;99.90
28023;DHT22;67403;50.104;8.758;2023-02-11T15:56:53;7.40;99.90
28023;DHT22;67403;50.104;8.758;2023-02-11T15:59:26;7.30;99.90
28023;DHT22;67403;50.104;8.758;2023-02-11T16:01:57;7.30;99.90
28023;DHT22;67403;50.104;8.758;2023-02-11T16:04:26;7.20;99.90
28023;DHT22;67403;50.104;8.758;2023-02-11T16:06:54;7.20;99.90
28023;DHT22;67403;50.104;8.758;2023-02-11T16:09:25;7.30;99.90
28023;DHT22;67403;50.104;8.758;2023-02-11T16:11:57;7.20;99.90
28023;DHT22;67403;50.104;8.758;2023-02-11T16:14:29;7.20;99.90
28023;DHT22;67403;50.104;8.758;2023-02-11T16:16:59;7.20;99.90
28023;DHT22;67403;50.104;8.758;2023-02-11T16:19:29;7.10;99.90
28023;DHT22;67403;50.104;8.758;2023-02-11T16:21:58;7.10;99.90